This is the latest recevied weather packets stored in our database for station/object BMCB-11. If no packets are shown the sender has not sent any weather packets the latest 10 day(s).
| Time | Temp. | Humidity | Pressure | Rain* | Wind** | Luminosity | Snow |
|---|---|---|---|---|---|---|---|
| 1777231849 | 13.33° C | 57% | 1024.1 hPa | 0 mm | - | 0 W/m² | - |
| 1777231220 | 13.33° C | 57% | 1024.1 hPa | 0 mm | - | 0 W/m² | - |
| 1777228821 | 15° C | 52% | 1023.7 hPa | 0 mm | - | 10 W/m² | - |
| 1777228220 | 15° C | 51% | 1023.7 hPa | 0 mm | - | 16 W/m² | - |
| 1777224622 | 16.67° C | 45% | 1023.4 hPa | 0 mm | - | 102 W/m² | - |
| 1777222222 | 17.22° C | 46% | 1023.5 hPa | 0 mm | - | 126 W/m² | - |
| 1777221635 | 17.78° C | 46% | 1023.5 hPa | 0 mm | - | 174 W/m² | - |
| 1777218021 | 17.78° C | 43% | 1023.7 hPa | 0 mm | - | 282 W/m² | - |
| 1777217421 | 18.33° C | 43% | 1023.8 hPa | 0 mm | - | 332 W/m² | - |
| 1777213833 | 17.78° C | 46% | 1024.2 hPa | 0 mm | - | 436 W/m² | - |
| 1777213220 | 17.78° C | 47% | 1024.3 hPa | 0 mm | - | 454 W/m² | - |
| 1777210822 | 17.78° C | 49% | 1024.4 hPa | 0 mm | - | 518 W/m² | - |
| 1777206053 | 17.22° C | 51% | 1024.9 hPa | 0 mm | - | 616 W/m² | - |
| 1777204834 | 16.11° C | 53% | 1025 hPa | 0 mm | - | 638 W/m² | - |
| 1777196445 | 13.89° C | 64% | 1025.5 hPa | 0 mm | - | 556 W/m² | - |
| 1777190447 | 10° C | 78% | 1025.6 hPa | 0 mm | - | 350 W/m² | - |
| 1777189843 | 10° C | 78% | 1025.6 hPa | 0 mm | - | 328 W/m² | - |
| 1777187443 | 8.33° C | 81% | 1025.7 hPa | 0 mm | - | 232 W/m² | - |
| 1777185644 | 6.67° C | 85% | 1025.8 hPa | 0 mm | - | 144 W/m² | - |
| 1777182647 | 5.56° C | 85% | 1025.6 hPa | 0 mm | - | 26 W/m² | - |
| 1777178441 | 3.89° C | 84% | 1025 hPa | 0 mm | - | 2 W/m² | - |
| 1777176646 | 3.89° C | 81% | 1024.8 hPa | 0 mm | - | 0 W/m² | - |
| 1777172444 | 4.44° C | 77% | 1024.4 hPa | 0 mm | - | 0 W/m² | - |
| 1777168845 | 4.44° C | 75% | 1024.3 hPa | 0 mm | - | 0 W/m² | - |
| 1777167646 | 4.44° C | 75% | 1024.2 hPa | 0 mm | - | 0 W/m² | - |
* Rain latest hour (hover to see other rain measurements)
** Current wind speed in m/s (hover to see current wind gust speed)